Time;durP1;ratioP1;P1;durP2;ratioP2;P2;SDS_P1;SDS_P2;PMS_P1;PMS_P2;Temp;Humidity;BMP_temperature;BMP_pressure;BME280_temperature;BME280_humidity;BME280_pressure;Samples;Min_cycle;Max_cycle;Signal;HPM_P1;HPM_P2
2023/11/12 00:01:51;;;;;;;6.85;3.88;;;6.40;99.90;;;;;;5006176;28;20022;-72
2023/11/12 00:04:17;;;;;;;5.70;3.70;;;6.50;99.90;;;;;;5015575;28;20052;-65
2023/11/12 00:06:43;;;;;;;9.90;4.85;;;6.40;99.90;;;;;;5013643;28;20021;-66
2023/11/12 00:09:09;;;;;;;6.95;4.78;;;6.50;99.90;;;;;;5004348;28;20053;-64
2023/11/12 00:11:35;;;;;;;6.53;4.85;;;6.50;99.90;;;;;;5009178;28;20064;-66
2023/11/12 00:14:02;;;;;;;7.80;4.85;;;6.50;99.90;;;;;;5016248;28;20441;-66
2023/11/12 00:16:28;;;;;;;7.70;4.60;;;6.50;99.90;;;;;;5010164;28;20031;-66
2023/11/12 00:18:54;;;;;;;5.78;4.53;;;6.50;99.90;;;;;;5011329;28;20028;-66
2023/11/12 00:21:20;;;;;;;5.80;4.63;;;6.50;99.90;;;;;;5013609;28;20033;-65
2023/11/12 00:23:46;;;;;;;6.20;4.47;;;6.50;99.90;;;;;;5014580;28;20112;-65
2023/11/12 00:26:12;;;;;;;7.50;4.70;;;6.50;99.90;;;;;;5010144;28;20029;-66
2023/11/12 00:28:38;;;;;;;8.73;5.55;;;6.50;99.90;;;;;;5007333;28;20021;-65
2023/11/12 00:31:04;;;;;;;8.95;5.40;;;6.50;99.90;;;;;;5015015;28;20112;-64
2023/11/12 00:33:29;;;;;;;6.07;4.85;;;6.50;99.90;;;;;;5014534;28;20495;-65
2023/11/12 00:35:56;;;;;;;8.45;4.85;;;6.50;99.90;;;;;;5008495;28;20061;-65
2023/11/12 00:38:21;;;;;;;9.68;5.40;;;6.50;99.90;;;;;;5008185;28;20504;-65
2023/11/12 00:40:47;;;;;;;7.32;5.03;;;6.50;99.90;;;;;;5015057;28;20116;-65
2023/11/12 00:43:13;;;;;;;9.20;4.80;;;6.50;99.90;;;;;;5011466;28;20079;-66
2023/11/12 00:45:39;;;;;;;12.20;5.82;;;6.50;99.90;;;;;;5011284;28;20025;-65
2023/11/12 00:48:05;;;;;;;6.13;4.57;;;6.60;99.90;;;;;;5013091;28;20035;-65
2023/11/12 00:50:31;;;;;;;10.20;5.95;;;6.60;99.90;;;;;;5006432;28;20026;-65
2023/11/12 00:52:56;;;;;;;8.52;5.18;;;6.60;99.90;;;;;;5012340;28;20033;-65
2023/11/12 00:55:22;;;;;;;9.10;5.47;;;6.60;99.90;;;;;;5013710;28;20023;-65
2023/11/12 00:57:48;;;;;;;7.90;5.47;;;6.60;99.90;;;;;;5010466;28;20037;-64
2023/11/12 01:00:14;;;;;;;8.25;4.90;;;6.60;99.90;;;;;;5014010;28;20041;-65
2023/11/12 01:02:39;;;;;;;10.75;5.88;;;6.60;99.90;;;;;;5011382;28;20175;-65
2023/11/12 01:05:05;;;;;;;9.60;5.45;;;6.60;99.90;;;;;;5010623;28;20033;-65
2023/11/12 01:07:31;;;;;;;7.32;5.10;;;6.60;99.90;;;;;;5012234;28;21016;-66
2023/11/12 01:09:56;;;;;;;7.40;5.15;;;6.60;99.90;;;;;;5009046;28;20109;-65
2023/11/12 01:12:23;;;;;;;7.97;5.63;;;6.60;99.90;;;;;;5010575;28;20030;-66
2023/11/12 01:14:49;;;;;;;8.50;6.25;;;6.60;99.90;;;;;;5014120;28;20025;-64
2023/11/12 01:17:15;;;;;;;8.20;5.35;;;6.60;99.90;;;;;;5014644;28;20147;-65
2023/11/12 01:19:41;;;;;;;10.48;6.07;;;6.60;99.90;;;;;;5010345;28;20550;-65
2023/11/12 01:22:06;;;;;;;10.52;6.30;;;6.60;99.90;;;;;;5016521;28;20057;-66
2023/11/12 01:24:32;;;;;;;7.40;5.47;;;6.50;99.90;;;;;;5007850;28;20112;-66
2023/11/12 01:26:58;;;;;;;9.25;5.80;;;6.60;99.90;;;;;;5006764;28;20045;-65
2023/11/12 01:29:24;;;;;;;10.65;6.55;;;6.60;99.90;;;;;;5011942;28;20021;-65
2023/11/12 01:31:50;;;;;;;8.75;6.13;;;6.60;99.90;;;;;;5010261;28;20461;-65
2023/11/12 01:34:16;;;;;;;8.05;5.55;;;6.60;99.90;;;;;;5012626;28;20093;-65
2023/11/12 01:36:41;;;;;;;12.70;6.85;;;6.60;99.90;;;;;;5006964;28;20401;-65
2023/11/12 01:39:08;;;;;;;8.55;5.80;;;6.60;99.90;;;;;;5011368;28;20076;-66
2023/11/12 01:41:34;;;;;;;8.30;5.95;;;6.60;99.90;;;;;;5015066;28;20017;-67
2023/11/12 01:44:00;;;;;;;9.50;5.82;;;6.60;99.90;;;;;;5015357;28;20030;-65
2023/11/12 01:46:29;;;;;;;8.52;5.97;;;6.60;99.90;;;;;;5013723;28;20067;-65
2023/11/12 01:48:56;;;;;;;12.32;7.20;;;6.60;99.90;;;;;;5012490;28;20026;-65
2023/11/12 01:51:22;;;;;;;8.48;6.78;;;6.60;99.90;;;;;;5016570;28;20155;-65
2023/11/12 01:53:49;;;;;;;11.23;6.57;;;6.60;99.90;;;;;;5006415;28;20056;-65
2023/11/12 01:56:16;;;;;;;10.18;6.78;;;6.60;99.90;;;;;;5013037;28;20036;-65
2023/11/12 01:58:43;;;;;;;10.00;6.97;;;6.60;99.90;;;;;;5015558;28;20591;-65
2023/11/12 02:01:09;;;;;;;11.70;7.45;;;6.60;99.90;;;;;;5016133;28;20038;-65
2023/11/12 02:03:36;;;;;;;9.00;6.95;;;6.60;99.90;;;;;;5014303;28;20072;-65
2023/11/12 02:06:03;;;;;;;12.65;7.28;;;6.60;99.90;;;;;;5013492;28;20021;-65
2023/11/12 02:08:30;;;;;;;10.48;6.97;;;6.60;99.90;;;;;;5010788;28;20508;-65
2023/11/12 02:10:56;;;;;;;10.25;7.13;;;6.60;99.90;;;;;;5016727;28;20075;-66
2023/11/12 02:13:22;;;;;;;15.27;9.52;;;6.60;99.90;;;;;;5009818;28;20034;-65
2023/11/12 02:15:49;;;;;;;12.77;7.50;;;6.60;99.90;;;;;;5013050;28;20050;-65
2023/11/12 02:18:15;;;;;;;12.98;8.20;;;6.60;99.90;;;;;;5012434;28;20055;-65
2023/11/12 02:20:44;;;;;;;14.63;7.78;;;6.50;99.90;;;;;;5013725;28;20052;-65
2023/11/12 02:23:10;;;;;;;13.18;8.68;;;6.60;99.90;;;;;;5011563;28;20033;-65
2023/11/12 02:25:36;;;;;;;11.82;7.78;;;6.50;99.90;;;;;;5015118;28;20064;-65
2023/11/12 02:28:03;;;;;;;10.55;7.45;;;6.50;99.90;;;;;;5012300;28;20021;-63
2023/11/12 02:30:28;;;;;;;13.45;8.15;;;6.50;99.90;;;;;;5013853;28;20026;-65
2023/11/12 02:32:54;;;;;;;10.93;7.78;;;6.50;99.90;;;;;;5011237;28;20028;-66
2023/11/12 02:35:19;;;;;;;12.00;7.93;;;6.50;99.90;;;;;;5011490;28;20041;-66
2023/11/12 02:37:45;;;;;;;13.20;7.50;;;6.60;99.90;;;;;;5009504;28;20459;-65
2023/11/12 02:40:12;;;;;;;10.57;6.63;;;6.50;99.90;;;;;;5014887;28;20509;-64
2023/11/12 02:42:38;;;;;;;12.27;7.32;;;6.50;99.90;;;;;;5012453;28;20299;-65
2023/11/12 02:45:05;;;;;;;9.73;6.93;;;6.50;99.90;;;;;;5013459;28;20025;-66
2023/11/12 02:47:30;;;;;;;9.55;6.78;;;6.50;99.90;;;;;;5015468;28;20029;-65
2023/11/12 02:50:05;;;;;;;9.27;6.43;;;6.50;99.90;;;;;;5011327;28;20385;-65
2023/11/12 02:52:34;;;;;;;8.90;6.22;;;6.50;99.90;;;;;;5017832;28;20028;-65
2023/11/12 02:54:59;;;;;;;11.65;7.82;;;6.50;99.90;;;;;;5015291;28;20054;-66
2023/11/12 02:57:26;;;;;;;11.85;7.70;;;6.50;99.90;;;;;;5011241;28;20064;-64
2023/11/12 02:59:53;;;;;;;10.80;6.85;;;6.50;99.90;;;;;;5013096;28;20029;-64
2023/11/12 03:02:19;;;;;;;14.18;7.50;;;6.50;99.90;;;;;;5013688;28;20032;-65
2023/11/12 03:04:44;;;;;;;9.30;6.38;;;6.50;99.90;;;;;;5011274;28;20104;-65
2023/11/12 03:07:09;;;;;;;10.10;6.15;;;6.50;99.90;;;;;;5014637;28;20094;-65
2023/11/12 03:09:35;;;;;;;11.50;7.15;;;6.50;99.90;;;;;;5017699;28;20022;-65
2023/11/12 03:12:02;;;;;;;12.30;7.72;;;6.50;99.90;;;;;;5010670;28;20455;-65
2023/11/12 03:14:28;;;;;;;10.07;6.88;;;6.50;99.90;;;;;;5013522;28;20168;-65
2023/11/12 03:16:54;;;;;;;12.60;7.43;;;6.40;99.90;;;;;;5016013;28;20040;-65
2023/11/12 03:19:21;;;;;;;10.23;6.95;;;6.40;99.90;;;;;;5013692;28;20018;-65
2023/11/12 03:21:52;;;;;;;10.60;6.88;;;6.40;99.90;;;;;;5016759;28;20541;-64
2023/11/12 03:24:21;;;;;;;9.68;6.47;;;6.40;99.90;;;;;;5016746;28;20025;-65
2023/11/12 03:26:50;;;;;;;9.25;6.35;;;6.40;99.90;;;;;;5014987;28;20393;-65
2023/11/12 03:29:15;;;;;;;9.77;6.55;;;6.40;99.90;;;;;;5016328;28;20037;-66
2023/11/12 03:31:41;;;;;;;11.77;6.63;;;6.50;99.90;;;;;;5015579;28;20030;-65
2023/11/12 03:34:06;;;;;;;10.80;6.45;;;6.40;99.90;;;;;;5010430;28;20622;-65
2023/11/12 03:36:32;;;;;;;9.88;6.40;;;6.50;99.90;;;;;;5008620;28;20053;-65
2023/11/12 03:38:57;;;;;;;10.02;6.28;;;6.50;99.90;;;;;;5017223;28;20049;-65
2023/11/12 03:41:23;;;;;;;11.43;6.20;;;6.50;99.90;;;;;;5016478;28;20022;-65
2023/11/12 03:43:48;;;;;;;10.52;6.15;;;6.50;99.90;;;;;;5018822;28;20026;-67
2023/11/12 03:46:13;;;;;;;9.38;5.10;;;6.50;99.90;;;;;;5020631;28;20387;-65
2023/11/12 03:48:39;;;;;;;8.93;6.47;;;6.50;99.90;;;;;;5010881;28;20117;-64
2023/11/12 03:51:04;;;;;;;9.10;6.18;;;6.50;99.90;;;;;;5014455;28;20022;-66
2023/11/12 03:53:30;;;;;;;9.90;6.20;;;6.50;99.90;;;;;;5015417;28;20437;-66
2023/11/12 03:55:55;;;;;;;9.50;6.20;;;6.50;99.90;;;;;;5016507;28;20040;-66
2023/11/12 03:58:21;;;;;;;8.45;5.70;;;6.50;99.90;;;;;;5014587;28;20092;-66
2023/11/12 04:00:47;;;;;;;9.77;5.22;;;6.40;99.90;;;;;;5017071;28;20041;-65
2023/11/12 04:03:12;;;;;;;9.10;5.20;;;6.40;99.90;;;;;;5016436;28;20091;-67
2023/11/12 04:05:38;;;;;;;8.32;4.88;;;6.40;99.90;;;;;;5015461;28;20367;-66
2023/11/12 04:08:03;;;;;;;8.05;5.38;;;6.40;99.90;;;;;;5014740;28;20137;-67
2023/11/12 04:10:29;;;;;;;7.72;4.50;;;6.40;99.90;;;;;;5015831;28;20067;-66
2023/11/12 04:12:55;;;;;;;7.65;5.15;;;6.40;99.90;;;;;;5018064;28;20033;-65
2023/11/12 04:15:20;;;;;;;5.10;3.75;;;6.40;99.90;;;;;;5016337;28;20508;-67
2023/11/12 04:17:46;;;;;;;6.18;3.97;;;6.40;99.90;;;;;;5014950;28;20042;-66
2023/11/12 04:20:11;;;;;;;6.75;4.20;;;6.40;99.90;;;;;;5017363;28;20615;-66
2023/11/12 04:22:37;;;;;;;5.20;3.70;;;6.40;99.90;;;;;;5013994;28;20250;-66
2023/11/12 04:25:04;;;;;;;6.45;4.15;;;6.40;99.90;;;;;;5013649;28;20542;-65
2023/11/12 04:27:30;;;;;;;9.23;4.95;;;6.40;99.90;;;;;;5016896;28;20033;-65
2023/11/12 04:29:56;;;;;;;7.03;4.43;;;6.40;99.90;;;;;;5016016;28;20025;-66
2023/11/12 04:32:21;;;;;;;8.45;4.75;;;6.40;99.90;;;;;;5008188;28;20014;-66
2023/11/12 04:34:47;;;;;;;7.97;5.05;;;6.40;99.90;;;;;;5017064;28;20030;-65
2023/11/12 04:37:13;;;;;;;8.20;5.13;;;6.30;99.90;;;;;;5010456;28;20065;-66
2023/11/12 04:39:39;;;;;;;7.22;4.68;;;6.30;99.90;;;;;;5016479;28;20473;-65
2023/11/12 04:42:06;;;;;;;5.80;4.20;;;6.30;99.90;;;;;;5015471;28;20065;-65
2023/11/12 04:44:31;;;;;;;7.88;5.18;;;6.30;99.90;;;;;;5013461;28;20109;-66
2023/11/12 04:46:57;;;;;;;8.48;4.90;;;6.30;99.90;;;;;;5017317;28;20160;-65
2023/11/12 04:49:24;;;;;;;8.05;4.30;;;6.40;99.90;;;;;;5018862;28;20393;-66
2023/11/12 04:51:50;;;;;;;7.95;4.95;;;6.40;99.90;;;;;;5018417;28;20022;-66
2023/11/12 04:54:15;;;;;;;8.15;4.78;;;6.30;99.90;;;;;;5016809;28;20028;-66
2023/11/12 04:56:47;;;;;;;8.50;5.03;;;6.40;99.90;;;;;;5013826;28;20124;-67
2023/11/12 04:59:13;;;;;;;6.85;4.03;;;6.30;99.90;;;;;;5015392;28;20029;-66
2023/11/12 05:01:39;;;;;;;7.03;4.65;;;6.40;99.90;;;;;;5014322;28;20025;-65
2023/11/12 05:04:05;;;;;;;8.07;5.22;;;6.40;99.90;;;;;;5014660;28;20033;-66
2023/11/12 05:06:31;;;;;;;7.50;4.85;;;6.40;99.90;;;;;;5015465;28;20048;-66
2023/11/12 05:08:57;;;;;;;6.78;4.63;;;6.30;99.90;;;;;;5011308;28;20478;-65
2023/11/12 05:11:22;;;;;;;10.13;4.85;;;6.40;99.90;;;;;;5013197;28;20079;-66
2023/11/12 05:13:47;;;;;;;8.77;5.85;;;6.30;99.90;;;;;;5015001;28;20098;-66
2023/11/12 05:16:13;;;;;;;9.20;5.88;;;6.30;99.90;;;;;;5019647;28;20075;-66
2023/11/12 05:18:39;;;;;;;9.73;5.57;;;6.30;99.90;;;;;;5011656;28;20042;-66
2023/11/12 05:21:06;;;;;;;9.02;5.22;;;6.30;99.90;;;;;;5016697;28;20048;-66
2023/11/12 05:23:32;;;;;;;9.68;5.32;;;6.30;99.90;;;;;;5014919;28;20497;-66
2023/11/12 05:25:59;;;;;;;8.23;5.85;;;6.30;99.90;;;;;;5015659;28;20109;-66
2023/11/12 05:28:25;;;;;;;9.40;5.63;;;6.30;99.90;;;;;;5015673;28;20507;-66
2023/11/12 05:30:51;;;;;;;8.77;5.40;;;6.20;99.90;;;;;;5013270;28;20553;-65
2023/11/12 05:33:16;;;;;;;10.10;5.05;;;6.20;99.90;;;;;;5014880;28;20045;-66
2023/11/12 05:35:42;;;;;;;11.32;5.75;;;6.20;99.90;;;;;;5014712;28;20448;-65
2023/11/12 05:38:08;;;;;;;8.63;5.13;;;6.30;99.90;;;;;;5005929;28;20044;-65
2023/11/12 05:40:33;;;;;;;9.65;5.88;;;6.30;99.90;;;;;;5011094;28;20025;-66
2023/11/12 05:43:00;;;;;;;9.70;6.15;;;6.30;99.90;;;;;;5013640;28;20079;-66
2023/11/12 05:45:26;;;;;;;8.43;5.20;;;6.30;99.90;;;;;;5015866;28;20029;-66
2023/11/12 05:47:51;;;;;;;9.75;5.05;;;6.40;99.90;;;;;;5016706;28;20140;-66
2023/11/12 05:50:17;;;;;;;8.50;5.28;;;6.40;99.90;;;;;;5013846;28;20044;-66
2023/11/12 05:52:43;;;;;;;11.45;6.53;;;6.40;99.90;;;;;;5014135;28;20033;-66
2023/11/12 05:55:09;;;;;;;9.70;5.68;;;6.40;99.90;;;;;;5016289;28;20067;-66
2023/11/12 05:57:35;;;;;;;9.80;6.03;;;6.40;99.90;;;;;;5013502;28;20482;-66
2023/11/12 06:00:00;;;;;;;9.63;5.95;;;6.40;99.90;;;;;;5013935;28;20037;-66
2023/11/12 06:02:26;;;;;;;10.80;6.45;;;6.40;99.90;;;;;;5015020;28;20021;-66
2023/11/12 06:04:51;;;;;;;9.77;5.50;;;6.40;99.90;;;;;;5009857;28;20100;-66
2023/11/12 06:07:16;;;;;;;11.15;6.03;;;6.40;99.90;;;;;;5015056;28;20032;-70
2023/11/12 06:09:44;;;;;;;11.82;6.68;;;6.40;99.90;;;;;;5013065;28;20540;-70
2023/11/12 06:12:09;;;;;;;8.20;5.90;;;6.40;99.90;;;;;;5010323;28;20393;-71
2023/11/12 06:14:36;;;;;;;9.57;6.03;;;6.40;99.90;;;;;;5013420;28;20108;-72
2023/11/12 06:17:02;;;;;;;8.30;5.93;;;6.40;99.90;;;;;;5014881;28;20101;-72
2023/11/12 06:19:28;;;;;;;7.68;5.35;;;6.40;99.90;;;;;;5012151;28;20033;-71
2023/11/12 06:21:55;;;;;;;8.32;5.28;;;6.40;99.90;;;;;;5015160;28;20582;-72
2023/11/12 06:24:20;;;;;;;9.98;5.90;;;6.50;99.90;;;;;;5013426;28;20024;-70
2023/11/12 06:26:46;;;;;;;10.25;6.55;;;6.50;99.90;;;;;;5014010;28;20022;-70
2023/11/12 06:29:11;;;;;;;13.73;8.10;;;6.50;99.90;;;;;;5009983;28;20017;-71
2023/11/12 06:31:37;;;;;;;11.93;7.18;;;6.50;99.90;;;;;;5006397;28;20057;-71
2023/11/12 06:34:02;;;;;;;14.57;7.68;;;6.50;99.90;;;;;;5006009;28;20045;-72
2023/11/12 06:36:28;;;;;;;10.55;6.70;;;6.50;99.90;;;;;;5008985;28;20516;-70
2023/11/12 06:38:53;;;;;;;10.20;6.60;;;6.60;99.90;;;;;;5012524;28;20029;-68
2023/11/12 06:41:19;;;;;;;13.30;7.75;;;6.60;99.90;;;;;;5013952;28;20037;-68
2023/11/12 06:43:44;;;;;;;13.48;8.15;;;6.60;99.90;;;;;;5015378;28;20098;-69
2023/11/12 06:46:10;;;;;;;13.88;7.28;;;6.60;99.90;;;;;;5011473;28;20068;-70
2023/11/12 06:48:36;;;;;;;12.65;7.50;;;6.70;99.90;;;;;;5013269;28;20080;-70
2023/11/12 06:51:02;;;;;;;14.52;7.32;;;6.70;99.90;;;;;;5008309;28;20490;-69
2023/11/12 06:53:28;;;;;;;11.13;6.78;;;6.70;99.90;;;;;;5012428;28;20529;-69
2023/11/12 06:55:53;;;;;;;10.15;6.60;;;6.70;99.90;;;;;;5014344;28;20113;-70
2023/11/12 06:58:19;;;;;;;9.82;6.03;;;6.70;99.90;;;;;;5005083;28;20144;-69
2023/11/12 07:00:45;;;;;;;12.95;6.90;;;6.70;99.90;;;;;;5008633;28;20092;-70
2023/11/12 07:03:11;;;;;;;11.93;6.88;;;6.80;99.90;;;;;;5008797;28;20037;-69
2023/11/12 07:05:37;;;;;;;12.77;7.50;;;6.70;99.90;;;;;;5008526;28;20057;-70
2023/11/12 07:08:04;;;;;;;16.33;7.70;;;6.70;99.90;;;;;;5005577;28;20061;-70
2023/11/12 07:10:30;;;;;;;15.85;8.48;;;6.70;99.90;;;;;;5001956;28;20444;-71
2023/11/12 07:12:57;;;;;;;13.63;8.40;;;6.70;99.90;;;;;;5012182;28;20033;-71
2023/11/12 07:15:22;;;;;;;14.30;7.90;;;6.70;99.90;;;;;;5003966;28;20052;-70
2023/11/12 07:17:52;;;;;;;11.90;7.15;;;6.70;99.90;;;;;;5011686;28;20030;-69
2023/11/12 07:20:18;;;;;;;13.70;7.22;;;6.80;99.90;;;;;;5016342;28;20041;-70
2023/11/12 07:22:46;;;;;;;14.95;7.95;;;6.80;99.90;;;;;;5008137;28;20022;-70
2023/11/12 07:25:12;;;;;;;13.77;7.47;;;6.80;99.90;;;;;;5010210;28;20156;-70
2023/11/12 07:27:38;;;;;;;11.95;6.78;;;6.70;99.90;;;;;;5007614;28;20501;-71
2023/11/12 07:30:04;;;;;;;12.85;6.72;;;6.70;99.90;;;;;;5004844;28;20107;-71
2023/11/12 07:32:30;;;;;;;12.40;7.20;;;6.70;99.90;;;;;;5009833;28;20026;-69
2023/11/12 07:34:56;;;;;;;15.25;8.07;;;6.70;99.90;;;;;;5000887;28;20057;-69
2023/11/12 07:37:22;;;;;;;9.70;6.07;;;6.70;99.90;;;;;;5005359;28;20034;-70
2023/11/12 07:39:48;;;;;;;12.18;7.13;;;6.70;99.90;;;;;;5005336;28;20030;-69
2023/11/12 07:42:14;;;;;;;11.05;6.70;;;6.70;99.90;;;;;;5008832;28;20033;-70
2023/11/12 07:44:39;;;;;;;10.80;6.40;;;6.80;99.90;;;;;;5010885;28;20022;-68
2023/11/12 07:47:05;;;;;;;11.02;6.93;;;6.80;99.90;;;;;;5002607;28;20398;-70
2023/11/12 07:49:31;;;;;;;9.98;6.10;;;6.90;99.90;;;;;;5009929;28;20446;-70
2023/11/12 07:51:56;;;;;;;9.73;5.95;;;6.90;99.90;;;;;;5007126;28;20041;-70
2023/11/12 07:54:23;;;;;;;22.73;8.13;;;7.00;99.90;;;;;;5009430;28;20038;-70
2023/11/12 07:56:48;;;;;;;15.68;7.90;;;7.10;99.90;;;;;;5009798;28;20424;-69
2023/11/12 07:59:14;;;;;;;12.82;8.05;;;7.20;99.90;;;;;;5009738;28;20026;-70
2023/11/12 08:01:41;;;;;;;11.98;8.15;;;7.30;99.90;;;;;;5010792;28;20096;-70
2023/11/12 08:04:10;;;;;;;11.57;7.55;;;7.30;99.90;;;;;;5010576;28;20029;-70
2023/11/12 08:06:35;;;;;;;12.75;7.47;;;7.40;99.90;;;;;;5012160;28;20394;-70
2023/11/12 08:09:01;;;;;;;12.88;7.60;;;7.50;99.90;;;;;;5007880;28;20029;-71
2023/11/12 08:11:26;;;;;;;13.45;8.02;;;7.60;99.90;;;;;;5012468;28;20819;-70
2023/11/12 08:13:52;;;;;;;13.63;7.47;;;7.60;99.90;;;;;;5006488;28;20037;-72
2023/11/12 08:16:18;;;;;;;9.85;6.70;;;7.80;99.90;;;;;;5009564;28;20119;-70
2023/11/12 08:18:43;;;;;;;12.13;6.82;;;7.80;99.90;;;;;;5013416;28;20075;-70
2023/11/12 08:21:09;;;;;;;9.13;6.45;;;8.00;99.90;;;;;;5009952;28;20038;-71
2023/11/12 08:23:35;;;;;;;12.65;7.35;;;8.10;99.90;;;;;;5012679;28;20049;-71
2023/11/12 08:26:01;;;;;;;9.70;6.75;;;8.20;99.90;;;;;;5009830;28;20061;-70
2023/11/12 08:28:27;;;;;;;12.05;7.32;;;8.30;99.90;;;;;;5010829;28;20034;-70
2023/11/12 08:30:52;;;;;;;10.38;6.28;;;8.40;99.90;;;;;;5013410;28;20037;-72
2023/11/12 08:33:18;;;;;;;10.95;7.18;;;8.50;99.90;;;;;;5013952;28;20557;-70
2023/11/12 08:35:43;;;;;;;11.82;7.35;;;8.50;99.90;;;;;;5009755;28;20113;-70
2023/11/12 08:38:09;;;;;;;10.25;6.18;;;8.50;99.90;;;;;;4998884;28;20029;-71
2023/11/12 08:40:39;;;;;;;11.75;6.68;;;8.60;99.90;;;;;;5010263;28;20053;-71
2023/11/12 08:43:05;;;;;;;9.75;6.40;;;8.60;99.90;;;;;;5013032;28;20543;-69
2023/11/12 08:45:30;;;;;;;11.02;7.13;;;8.70;99.90;;;;;;5007130;28;20112;-70
2023/11/12 08:47:56;;;;;;;8.95;6.38;;;8.80;99.90;;;;;;5012106;28;20061;-70
2023/11/12 08:50:21;;;;;;;9.45;5.85;;;8.90;99.90;;;;;;5009038;28;20079;-70
2023/11/12 08:52:47;;;;;;;8.95;5.72;;;9.00;99.90;;;;;;5012246;28;20049;-70
2023/11/12 08:55:12;;;;;;;9.80;5.90;;;9.10;99.90;;;;;;5015025;28;20028;-70
2023/11/12 08:57:40;;;;;;;11.15;6.35;;;9.20;99.90;;;;;;5007852;28;20086;-71
2023/11/12 09:00:07;;;;;;;8.20;5.65;;;9.40;99.90;;;;;;5009962;28;20032;-69
2023/11/12 09:02:33;;;;;;;7.60;5.15;;;9.70;99.90;;;;;;5009101;28;20029;-70
2023/11/12 09:04:59;;;;;;;7.35;5.38;;;10.00;99.90;;;;;;5016477;28;20042;-70
2023/11/12 09:07:24;;;;;;;6.28;4.95;;;10.20;99.90;;;;;;5012379;28;20022;-69
2023/11/12 09:09:50;;;;;;;6.07;4.30;;;10.50;99.90;;;;;;5010110;28;20030;-69
2023/11/12 09:12:15;;;;;;;5.45;4.53;;;10.70;99.90;;;;;;5006660;28;20113;-70
2023/11/12 09:14:41;;;;;;;5.65;3.72;;;10.80;99.90;;;;;;5007751;28;20445;-71
2023/11/12 09:17:06;;;;;;;4.65;3.25;;;10.90;99.90;;;;;;5008013;28;20033;-70
2023/11/12 09:19:32;;;;;;;5.32;3.63;;;10.90;99.90;;;;;;5007559;28;20032;-71
2023/11/12 09:21:57;;;;;;;4.13;3.13;;;10.80;99.90;;;;;;5014923;28;20048;-71
2023/11/12 09:24:23;;;;;;;3.20;2.83;;;10.80;99.90;;;;;;5014385;28;20104;-72
2023/11/12 09:26:48;;;;;;;2.63;2.25;;;10.80;99.90;;;;;;5006826;28;20036;-72
2023/11/12 09:29:14;;;;;;;3.67;2.70;;;10.70;99.90;;;;;;5005583;28;20088;-71
2023/11/12 09:31:39;;;;;;;3.78;2.72;;;10.60;99.90;;;;;;5006217;28;20034;-71
2023/11/12 09:34:05;;;;;;;5.05;3.65;;;10.50;99.90;;;;;;5009613;28;20029;-71
2023/11/12 09:36:31;;;;;;;3.15;2.83;;;10.40;99.90;;;;;;5008121;28;20502;-71
2023/11/12 09:38:56;;;;;;;3.72;3.00;;;10.40;99.90;;;;;;5013631;28;20105;-70
2023/11/12 09:41:25;;;;;;;3.72;3.17;;;10.50;99.90;;;;;;5009631;28;20029;-70
2023/11/12 09:43:52;;;;;;;3.53;3.00;;;10.60;99.90;;;;;;5009750;28;20026;-70
2023/11/12 09:46:19;;;;;;;3.83;2.20;;;10.60;99.90;;;;;;5008910;28;20391;-72
2023/11/12 09:48:45;;;;;;;6.25;3.45;;;10.60;99.90;;;;;;5005683;28;20029;-70
2023/11/12 09:51:13;;;;;;;7.47;3.80;;;10.60;99.90;;;;;;5009874;28;20111;-70
2023/11/12 09:53:41;;;;;;;7.47;4.50;;;10.80;99.90;;;;;;5009448;28;20128;-70
2023/11/12 09:56:09;;;;;;;4.40;3.30;;;10.90;99.90;;;;;;5013609;28;20117;-71
2023/11/12 09:58:47;;;;;;;3.88;2.97;;;10.90;98.60;;;;;;5012853;28;20068;-70
2023/11/12 10:01:13;;;;;;;4.80;2.78;;;10.90;98.40;;;;;;5009063;28;20057;-69
2023/11/12 10:03:41;;;;;;;5.18;3.53;;;10.90;97.40;;;;;;5014496;28;20064;-71
2023/11/12 10:06:07;;;;;;;5.70;3.10;;;10.90;97.50;;;;;;5013134;28;20588;-70
2023/11/12 10:08:35;;;;;;;3.85;3.00;;;10.90;96.70;;;;;;5015496;28;20060;-70
2023/11/12 10:11:15;;;;;;;4.32;3.10;;;10.90;97.00;;;;;;5016184;28;20571;-70
2023/11/12 10:13:41;;;;;;;3.00;2.38;;;11.00;96.90;;;;;;5010382;28;20031;-70
2023/11/12 10:16:23;;;;;;;2.55;2.10;;;11.00;96.00;;;;;;5011862;28;20615;-71
2023/11/12 10:18:53;;;;;;;2.65;1.80;;;11.00;95.60;;;;;;4992323;28;20028;-70
2023/11/12 10:21:22;;;;;;;4.47;2.28;;;11.00;95.60;;;;;;5012407;28;20025;-70
2023/11/12 10:24:04;;;;;;;2.85;2.17;;;11.00;95.00;;;;;;5012744;28;20029;-70
2023/11/12 10:26:34;;;;;;;2.95;2.38;;;11.00;95.10;;;;;;5009631;28;20076;-70
2023/11/12 10:29:00;;;;;;;3.95;2.30;;;11.00;94.30;;;;;;5008523;28;20055;-72
2023/11/12 10:31:36;;;;;;;3.42;1.77;;;11.00;94.40;;;;;;5012416;28;20017;-72
2023/11/12 10:34:02;;;;;;;2.05;1.60;;;11.00;93.80;;;;;;5006034;28;20112;-71
2023/11/12 10:36:28;;;;;;;2.25;1.42;;;11.10;93.20;;;;;;5007213;28;20514;-70
2023/11/12 10:38:54;;;;;;;2.15;1.52;;;11.20;93.10;;;;;;5005566;28;20482;-70
2023/11/12 10:41:20;;;;;;;1.48;1.20;;;11.20;92.40;;;;;;5008960;28;20610;-70
2023/11/12 10:43:58;;;;;;;2.83;1.48;;;11.20;92.20;;;;;;5010982;28;20040;-71
2023/11/12 10:46:25;;;;;;;1.85;1.25;;;11.20;91.80;;;;;;5010971;28;20087;-70
2023/11/12 10:48:54;;;;;;;1.75;1.10;;;11.10;91.50;;;;;;5008995;28;20366;-70
2023/11/12 10:51:20;;;;;;;3.47;1.60;;;11.10;92.20;;;;;;5014096;28;20037;-71
2023/11/12 10:53:48;;;;;;;2.35;1.60;;;11.10;91.90;;;;;;5002282;28;20427;-71
2023/11/12 10:56:16;;;;;;;3.30;1.90;;;11.10;91.90;;;;;;5013349;28;20107;-72
2023/11/12 10:58:43;;;;;;;2.50;1.60;;;11.10;92.00;;;;;;5009936;28;20030;-71
2023/11/12 11:01:10;;;;;;;2.30;1.60;;;11.10;91.80;;;;;;5010739;28;20030;-71
2023/11/12 11:03:36;;;;;;;2.58;1.42;;;11.00;91.70;;;;;;5003964;28;20135;-72
2023/11/12 11:06:03;;;;;;;2.28;1.55;;;11.00;91.70;;;;;;5014014;28;20026;-71
2023/11/12 11:08:34;;;;;;;2.38;1.73;;;11.00;91.80;;;;;;5004741;28;20501;-70
2023/11/12 11:11:00;;;;;;;3.00;1.90;;;11.10;92.10;;;;;;5011100;28;20501;-70
2023/11/12 11:13:27;;;;;;;5.38;1.83;;;11.00;92.10;;;;;;5015552;28;20105;-71
2023/11/12 11:15:55;;;;;;;2.22;1.88;;;11.00;92.30;;;;;;5013943;28;20421;-70
2023/11/12 11:18:33;;;;;;;2.60;1.77;;;10.90;92.20;;;;;;5013846;28;20048;-71
2023/11/12 11:21:06;;;;;;;3.53;2.00;;;10.80;92.80;;;;;;5011072;28;20051;-71
2023/11/12 11:23:42;;;;;;;4.07;2.90;;;10.80;93.20;;;;;;5010960;28;20371;-71
2023/11/12 11:26:29;;;;;;;3.70;2.60;;;10.70;93.50;;;;;;5013210;28;20029;-71
2023/11/12 11:29:13;;;;;;;4.00;2.85;;;10.60;93.40;;;;;;5009149;28;20584;-71
2023/11/12 11:31:45;;;;;;;4.07;2.78;;;10.50;94.00;;;;;;5013068;28;20387;-71
2023/11/12 11:34:12;;;;;;;3.33;2.78;;;10.40;94.10;;;;;;5010724;28;20057;-71
2023/11/12 11:36:40;;;;;;;5.50;3.22;;;10.40;94.60;;;;;;5012417;28;20038;-71
2023/11/12 11:39:12;;;;;;;3.88;2.55;;;10.40;95.00;;;;;;5016201;28;20043;-71
2023/11/12 11:41:50;;;;;;;4.20;2.70;;;10.40;95.50;;;;;;5014380;28;20033;-71
2023/11/12 11:44:31;;;;;;;5.45;2.45;;;10.30;95.20;;;;;;5015860;28;20572;-71
2023/11/12 11:47:12;;;;;;;3.00;2.40;;;10.20;95.70;;;;;;5011524;28;20478;-71
2023/11/12 11:49:38;;;;;;;3.50;2.50;;;10.10;96.00;;;;;;5015106;28;20122;-71
2023/11/12 11:52:06;;;;;;;5.85;3.85;;;10.00;96.40;;;;;;5020586;28;20394;-70
2023/11/12 11:54:32;;;;;;;7.97;3.38;;;9.90;96.80;;;;;;5016100;28;20429;-72
2023/11/12 11:56:59;;;;;;;4.53;3.05;;;9.90;97.20;;;;;;5012352;28;20083;-71
2023/11/12 11:59:25;;;;;;;6.47;3.80;;;9.80;97.40;;;;;;5018153;28;20036;-71
2023/11/12 12:01:53;;;;;;;4.68;3.95;;;9.70;97.60;;;;;;5007386;28;20037;-71
2023/11/12 12:04:19;;;;;;;4.85;3.33;;;9.70;97.80;;;;;;5021094;28;20108;-71
2023/11/12 12:06:46;;;;;;;5.05;3.33;;;9.60;97.90;;;;;;5018305;28;20014;-71
2023/11/12 12:09:19;;;;;;;5.68;3.30;;;9.70;98.20;;;;;;5013907;28;20022;-65
2023/11/12 12:11:48;;;;;;;6.60;3.45;;;9.70;98.40;;;;;;5017125;28;20025;-63
2023/11/12 12:14:15;;;;;;;5.93;3.25;;;9.70;98.50;;;;;;5015692;28;20066;-70
2023/11/12 12:16:42;;;;;;;4.90;3.30;;;9.70;98.60;;;;;;5017848;28;20051;-70
2023/11/12 12:19:13;;;;;;;6.38;3.38;;;9.70;98.50;;;;;;5013771;28;20414;-70
2023/11/12 12:21:50;;;;;;;5.10;3.22;;;9.80;98.50;;;;;;5019226;28;20409;-70
2023/11/12 12:24:19;;;;;;;4.88;2.85;;;9.80;98.50;;;;;;5016344;28;20079;-70
2023/11/12 12:26:44;;;;;;;3.60;2.50;;;9.80;98.60;;;;;;5017687;28;20345;-70
2023/11/12 12:29:20;;;;;;;4.78;2.95;;;9.80;98.50;;;;;;5015945;28;20358;-71
2023/11/12 12:31:48;;;;;;;2.38;1.80;;;9.70;98.60;;;;;;5012823;28;20417;-71
2023/11/12 12:34:16;;;;;;;4.78;2.55;;;9.70;98.70;;;;;;5016000;28;20029;-70
2023/11/12 12:37:05;;;;;;;3.40;2.30;;;9.60;98.70;;;;;;5008548;28;20068;-66
2023/11/12 12:39:50;;;;;;;3.72;2.58;;;9.60;99.00;;;;;;5013518;28;20991;-70
2023/11/12 12:42:19;;;;;;;4.18;2.65;;;9.60;99.10;;;;;;5012044;28;20086;-70
2023/11/12 12:44:51;;;;;;;5.30;3.25;;;9.50;99.40;;;;;;5012029;28;20385;-70
2023/11/12 12:47:39;;;;;;;4.93;2.63;;;9.40;99.70;;;;;;5007995;28;20601;-70
2023/11/12 12:50:15;;;;;;;7.03;3.30;;;9.40;99.90;;;;;;5015024;28;20029;-70